Time,TemperatureF,DewpointF,PressureIn,WindDirection,WindDirectionDegrees,WindSpeedMPH,WindSpeedGustMPH,Humidity,HourlyPrecipIn,Conditions,Clouds,dailyrainin,SoftwareType,DateUTC
2013-06-26 00:04:00,71.2,70.9,29.68,NE,36,0.0,2.0,99,0.00,,,0.45,Wunderground v.1.15,2013-06-26 04:04:00,
2013-06-26 00:09:00,71.1,70.8,29.68,NE,36,0.0,0.0,99,0.00,,,0.45,Wunderground v.1.15,2013-06-26 04:09:00,
2013-06-26 00:14:00,71.0,70.7,29.68,NE,36,0.0,0.0,99,0.00,,,0.45,Wunderground v.1.15,2013-06-26 04:14:00,
2013-06-26 00:19:00,70.9,70.6,29.68,NE,36,0.0,0.0,99,0.00,,,0.45,Wunderground v.1.15,2013-06-26 04:19:00,
2013-06-26 00:24:00,70.9,70.6,29.68,NE,36,0.0,0.0,99,0.00,,,0.45,Wunderground v.1.15,2013-06-26 04:24:00,
2013-06-26 00:29:00,70.8,70.5,29.68,NE,36,0.0,0.0,99,0.00,,,0.45,Wunderground v.1.15,2013-06-26 04:29:00,
2013-06-26 00:34:00,70.7,70.4,29.68,NE,36,0.0,0.0,99,0.00,,,0.45,Wunderground v.1.15,2013-06-26 04:34:00,
2013-06-26 00:39:00,70.6,70.3,29.68,NE,36,0.0,0.0,99,0.00,,,0.45,Wunderground v.1.15,2013-06-26 04:39:00,
2013-06-26 00:44:00,70.5,70.2,29.68,NE,36,0.0,0.0,99,0.00,,,0.45,Wunderground v.1.15,2013-06-26 04:44:00,
2013-06-26 00:49:00,70.4,70.1,29.68,NE,36,0.0,0.0,99,0.00,,,0.45,Wunderground v.1.15,2013-06-26 04:49:00,
2013-06-26 00:54:00,70.3,70.0,29.68,NE,36,0.0,0.0,99,0.00,,,0.45,Wunderground v.1.15,2013-06-26 04:54:00,
2013-06-26 00:59:00,70.2,69.9,29.68,NE,36,0.0,0.0,99,0.00,,,0.45,Wunderground v.1.15,2013-06-26 04:59:00,
2013-06-26 01:09:00,70.2,70.2,29.68,NE,36,0.0,0.0,100,0.00,,,0.00,Wunderground v.1.15,2013-06-26 05:09:00,
2013-06-26 01:19:00,70.2,70.2,29.68,NE,36,0.0,0.0,100,0.00,,,0.00,Wunderground v.1.15,2013-06-26 05:19:00,
2013-06-26 01:29:00,70.2,70.2,29.68,NE,36,0.0,0.0,100,0.00,,,0.00,Wunderground v.1.15,2013-06-26 05:29:00,
2013-06-26 01:39:00,70.2,70.2,29.67,NE,36,0.0,0.0,100,0.00,,,0.00,Wunderground v.1.15,2013-06-26 05:39:00,
2013-06-26 01:44:00,70.2,70.2,29.67,NE,36,0.0,0.0,100,0.00,,,0.00,Wunderground v.1.15,2013-06-26 05:44:00,
2013-06-26 01:49:00,70.2,70.2,29.67,NE,36,0.0,0.0,100,0.00,,,0.00,Wunderground v.1.15,2013-06-26 05:49:00,
2013-06-26 01:54:00,70.2,70.2,29.67,NE,36,0.0,0.0,100,0.00,,,0.00,Wunderground v.1.15,2013-06-26 05:54:00,
2013-06-26 01:59:00,70.2,70.2,29.67,NE,36,0.0,0.0,100,0.00,,,0.00,Wunderground v.1.15,2013-06-26 05:59:00,
2013-06-26 02:04:00,70.1,70.1,29.67,NE,36,0.0,0.0,100,0.00,,,0.00,Wunderground v.1.15,2013-06-26 06:04:00,
2013-06-26 02:09:00,70.1,70.1,29.67,NE,36,0.0,0.0,100,0.00,,,0.00,Wunderground v.1.15,2013-06-26 06:09:00,
2013-06-26 02:19:00,70.3,70.3,29.67,NE,36,0.0,0.0,100,0.00,,,0.00,Wunderground v.1.15,2013-06-26 06:19:00,
2013-06-26 02:24:00,70.3,70.3,29.67,NE,36,0.0,0.0,100,0.00,,,0.00,Wunderground v.1.15,2013-06-26 06:24:00,
2013-06-26 02:29:00,70.3,70.3,29.67,NE,36,0.0,0.0,100,0.00,,,0.00,Wunderground v.1.15,2013-06-26 06:29:00,
2013-06-26 02:34:00,70.4,70.4,29.66,NE,36,0.0,0.0,100,0.00,,,0.00,Wunderground v.1.15,2013-06-26 06:34:00,
2013-06-26 02:39:00,70.3,70.3,29.66,NE,36,0.0,0.0,100,0.00,,,0.00,Wunderground v.1.15,2013-06-26 06:39:00,
2013-06-26 02:49:00,70.3,70.3,29.66,NE,36,0.0,0.0,100,0.00,,,0.00,Wunderground v.1.15,2013-06-26 06:49:00,
2013-06-26 02:54:00,70.3,70.3,29.66,NE,36,0.0,0.0,100,0.00,,,0.00,Wunderground v.1.15,2013-06-26 06:54:00,
2013-06-26 02:59:00,70.3,70.3,29.65,NE,36,0.0,0.0,100,0.00,,,0.00,Wunderground v.1.15,2013-06-26 06:59:00,
2013-06-26 03:04:00,70.2,70.2,29.65,NE,36,0.0,0.0,100,0.00,,,0.00,Wunderground v.1.15,2013-06-26 07:04:00,
2013-06-26 03:09:00,70.2,70.2,29.65,NE,36,0.0,0.0,100,0.00,,,0.00,Wunderground v.1.15,2013-06-26 07:09:00,
2013-06-26 03:14:00,70.1,70.1,29.65,NE,36,0.0,0.0,100,0.00,,,0.00,Wunderground v.1.15,2013-06-26 07:14:00,
2013-06-26 03:19:00,70.1,70.1,29.65,NE,36,0.0,0.0,100,0.00,,,0.00,Wunderground v.1.15,2013-06-26 07:19:00,
2013-06-26 03:29:00,70.0,70.0,29.65,NE,36,0.0,0.0,100,0.00,,,0.00,Wunderground v.1.15,2013-06-26 07:29:00,
2013-06-26 03:34:00,70.0,70.0,29.66,NE,36,0.0,0.0,100,0.00,,,0.00,Wunderground v.1.15,2013-06-26 07:34:00,
2013-06-26 03:44:00,70.1,70.1,29.66,NE,36,0.0,0.0,100,0.00,,,0.00,Wunderground v.1.15,2013-06-26 07:44:00,
2013-06-26 03:49:00,70.1,70.1,29.66,NE,36,0.0,0.0,100,0.00,,,0.00,Wunderground v.1.15,2013-06-26 07:49:00,
2013-06-26 03:59:00,69.9,69.9,29.67,NE,36,0.0,0.0,100,0.00,,,0.00,Wunderground v.1.15,2013-06-26 07:59:00,
2013-06-26 04:04:00,69.9,69.9,29.67,NE,36,0.0,0.0,100,0.00,,,0.00,Wunderground v.1.15,2013-06-26 08:04:00,
2013-06-26 04:09:00,69.9,69.9,29.67,NE,36,0.0,0.0,100,0.00,,,0.00,Wunderground v.1.15,2013-06-26 08:09:00,
2013-06-26 04:14:00,69.8,69.8,29.67,NE,36,0.0,0.0,100,0.00,,,0.00,Wunderground v.1.15,2013-06-26 08:14:00,
2013-06-26 04:19:00,69.7,69.7,29.67,NE,36,0.0,0.0,100,0.00,,,0.00,Wunderground v.1.15,2013-06-26 08:19:00,
2013-06-26 04:29:00,69.5,69.5,29.66,NE,36,0.0,0.0,100,0.00,,,0.00,Wunderground v.1.15,2013-06-26 08:29:00,
2013-06-26 04:39:00,69.2,69.2,29.67,NE,36,0.0,0.0,100,0.00,,,0.00,Wunderground v.1.15,2013-06-26 08:39:00,
2013-06-26 04:49:00,69.1,69.1,29.67,NE,36,0.0,0.0,100,0.00,,,0.00,Wunderground v.1.15,2013-06-26 08:49:00,
2013-06-26 04:59:00,69.0,69.0,29.67,NE,36,0.0,0.0,100,0.00,,,0.00,Wunderground v.1.15,2013-06-26 08:59:00,
2013-06-26 05:09:00,69.0,69.0,29.68,NE,36,0.0,0.0,100,0.00,,,0.00,Wunderground v.1.15,2013-06-26 09:09:00,
2013-06-26 05:14:00,69.0,69.0,29.68,NE,36,0.0,0.0,100,0.00,,,0.00,Wunderground v.1.15,2013-06-26 09:14:00,
2013-06-26 05:19:00,69.0,69.0,29.68,NE,36,0.0,0.0,100,0.00,,,0.00,Wunderground v.1.15,2013-06-26 09:19:00,
2013-06-26 05:24:00,68.9,68.9,29.68,NE,36,0.0,0.0,100,0.00,,,0.00,Wunderground v.1.15,2013-06-26 09:24:00,
2013-06-26 05:34:00,69.1,69.1,29.68,NE,36,0.0,0.0,100,0.00,,,0.00,Wunderground v.1.15,2013-06-26 09:34:00,
2013-06-26 05:39:00,69.1,69.1,29.68,NE,36,0.0,0.0,100,0.00,,,0.00,Wunderground v.1.15,2013-06-26 09:39:00,
2013-06-26 05:44:00,69.2,69.2,29.69,NE,36,0.0,0.0,100,0.00,,,0.00,Wunderground v.1.15,2013-06-26 09:44:00,
2013-06-26 05:49:00,69.2,69.2,29.69,NE,36,0.0,0.0,100,0.00,,,0.00,Wunderground v.1.15,2013-06-26 09:49:00,
2013-06-26 05:54:00,69.3,69.3,29.68,NE,36,0.0,0.0,100,0.00,,,0.00,Wunderground v.1.15,2013-06-26 09:54:00,
2013-06-26 06:04:00,69.4,69.4,29.69,NE,36,0.0,0.0,100,0.00,,,0.00,Wunderground v.1.15,2013-06-26 10:04:00,
2013-06-26 06:09:00,69.4,69.4,29.69,NE,36,0.0,0.0,100,0.00,,,0.00,Wunderground v.1.15,2013-06-26 10:09:00,
2013-06-26 06:19:00,69.5,69.5,29.69,NE,36,0.0,2.0,100,0.00,,,0.00,Wunderground v.1.15,2013-06-26 10:19:00,
2013-06-26 06:24:00,69.6,69.6,29.68,NE,36,0.0,2.0,100,0.00,,,0.00,Wunderground v.1.15,2013-06-26 10:24:00,
2013-06-26 06:29:00,69.7,69.7,29.69,NE,36,0.0,0.0,100,0.00,,,0.00,Wunderground v.1.15,2013-06-26 10:29:00,
2013-06-26 06:34:00,69.8,69.8,29.68,NE,36,0.0,0.0,100,0.00,,,0.00,Wunderground v.1.15,2013-06-26 10:34:00,
2013-06-26 06:39:00,70.0,70.0,29.68,NE,36,0.0,0.0,100,0.00,,,0.00,Wunderground v.1.15,2013-06-26 10:39:00,
2013-06-26 06:44:00,70.1,70.1,29.69,NE,36,0.0,0.0,100,0.00,,,0.00,Wunderground v.1.15,2013-06-26 10:44:00,
2013-06-26 06:49:00,70.1,70.1,29.69,NE,36,0.0,0.0,100,0.00,,,0.00,Wunderground v.1.15,2013-06-26 10:49:00,
2013-06-26 06:54:00,70.1,70.1,29.69,NE,36,0.0,0.0,100,0.00,,,0.00,Wunderground v.1.15,2013-06-26 10:54:00,
2013-06-26 06:59:00,70.4,70.4,29.69,NE,36,0.0,0.0,100,0.00,,,0.00,Wunderground v.1.15,2013-06-26 10:59:00,
2013-06-26 07:04:00,70.5,70.5,29.69,NE,36,0.0,0.0,100,0.00,,,0.00,Wunderground v.1.15,2013-06-26 11:04:00,
2013-06-26 07:09:00,70.4,70.4,29.69,NE,36,0.0,0.0,100,0.00,,,0.00,Wunderground v.1.15,2013-06-26 11:09:00,
2013-06-26 07:19:00,70.8,70.8,29.69,NE,36,0.0,3.0,100,0.00,,,0.00,Wunderground v.1.15,2013-06-26 11:19:00,
2013-06-26 07:29:00,71.8,71.8,29.68,NE,36,0.0,0.0,100,0.00,,,0.00,Wunderground v.1.15,2013-06-26 11:29:00,
2013-06-26 07:34:00,71.8,71.8,29.68,NE,36,0.0,0.0,100,0.00,,,0.00,Wunderground v.1.15,2013-06-26 11:34:00,
2013-06-26 07:39:00,71.6,71.6,29.69,SSE,165,0.0,0.0,100,0.00,,,0.00,Wunderground v.1.15,2013-06-26 11:39:00,
2013-06-26 07:44:00,71.4,71.4,29.69,SSE,166,0.0,0.0,100,0.00,,,0.00,Wunderground v.1.15,2013-06-26 11:44:00,
2013-06-26 07:49:00,71.6,71.6,29.69,SSE,165,0.0,0.0,100,0.00,,,0.00,Wunderground v.1.15,2013-06-26 11:49:00,
2013-06-26 07:54:00,72.1,72.1,29.69,SSE,167,0.0,0.0,100,0.00,,,0.00,Wunderground v.1.15,2013-06-26 11:54:00,
2013-06-26 07:59:00,72.5,72.5,29.69,SSE,166,0.0,0.0,100,0.00,,,0.00,Wunderground v.1.15,2013-06-26 11:59:00,
2013-06-26 08:04:00,73.1,73.1,29.70,SSE,165,0.0,0.0,100,0.00,,,0.00,Wunderground v.1.15,2013-06-26 12:04:00,
2013-06-26 08:14:00,73.8,73.8,29.70,SSE,166,0.0,0.0,100,0.00,,,0.00,Wunderground v.1.15,2013-06-26 12:14:00,
2013-06-26 08:24:00,74.5,73.9,29.70,South,169,0.0,0.0,98,0.00,,,0.00,Wunderground v.1.15,2013-06-26 12:24:00,
2013-06-26 08:34:00,75.2,74.0,29.70,South,170,0.0,1.0,96,0.00,,,0.00,Wunderground v.1.15,2013-06-26 12:34:00,
2013-06-26 08:39:00,75.6,74.1,29.70,South,171,0.0,1.0,95,0.00,,,0.00,Wunderground v.1.15,2013-06-26 12:39:00,
2013-06-26 08:44:00,76.1,74.2,29.70,South,169,0.0,1.0,94,0.00,,,0.00,Wunderground v.1.15,2013-06-26 12:44:00,
2013-06-26 08:49:00,76.8,74.6,29.70,South,170,0.0,0.0,93,0.00,,,0.00,Wunderground v.1.15,2013-06-26 12:49:00,
2013-06-26 08:54:00,77.1,74.6,29.71,NW,317,0.0,3.0,92,0.00,,,0.00,Wunderground v.1.15,2013-06-26 12:54:00,
2013-06-26 08:59:00,77.4,74.2,29.70,NW,319,0.0,0.0,90,0.00,,,0.00,Wunderground v.1.15,2013-06-26 12:59:00,
2013-06-26 09:04:00,77.6,73.8,29.71,NW,319,0.0,0.0,88,0.00,,,0.00,Wunderground v.1.15,2013-06-26 13:04:00,
2013-06-26 09:14:00,78.6,74.4,29.70,NW,319,0.0,1.0,87,0.00,,,0.00,Wunderground v.1.15,2013-06-26 13:14:00,
2013-06-26 09:19:00,78.9,74.4,29.70,North,10,0.0,1.0,86,0.00,,,0.00,Wunderground v.1.15,2013-06-26 13:19:00,
2013-06-26 09:24:00,79.4,74.1,29.70,North,10,0.0,1.0,84,0.00,,,0.00,Wunderground v.1.15,2013-06-26 13:24:00,
2013-06-26 09:29:00,80.0,74.7,29.70,North,10,0.0,1.0,84,0.00,,,0.00,Wunderground v.1.15,2013-06-26 13:29:00,
2013-06-26 09:39:00,80.8,74.0,29.70,NNE,12,0.0,1.0,80,0.00,,,0.00,Wunderground v.1.15,2013-06-26 13:39:00,
2013-06-26 09:44:00,80.7,72.8,29.70,NNE,16,0.0,2.0,77,0.00,,,0.00,Wunderground v.1.15,2013-06-26 13:44:00,
2013-06-26 09:49:00,80.7,72.8,29.70,NE,46,0.0,1.0,77,0.00,,,0.00,Wunderground v.1.15,2013-06-26 13:49:00,
2013-06-26 09:59:00,80.8,73.3,29.70,NNE,21,1.0,1.0,78,0.00,,,0.00,Wunderground v.1.15,2013-06-26 13:59:00,
2013-06-26 10:09:00,81.0,73.1,29.71,NNE,21,0.0,1.0,77,0.00,,,0.00,Wunderground v.1.15,2013-06-26 14:09:00,
2013-06-26 10:19:00,81.3,72.2,29.71,East,80,1.0,2.0,74,0.00,,,0.00,Wunderground v.1.15,2013-06-26 14:19:00,
2013-06-26 10:29:00,81.7,73.0,29.71,NE,51,0.0,1.0,75,0.00,,,0.00,Wunderground v.1.15,2013-06-26 14:29:00,
2013-06-26 10:39:00,82.3,73.2,29.71,NE,55,1.0,1.0,74,0.00,,,0.00,Wunderground v.1.15,2013-06-26 14:39:00,
2013-06-26 10:49:00,81.8,72.7,29.71,NE,54,0.0,1.0,74,0.00,,,0.00,Wunderground v.1.15,2013-06-26 14:49:00,
2013-06-26 10:54:00,81.6,72.9,29.71,NE,53,0.0,1.0,75,0.00,,,0.00,Wunderground v.1.15,2013-06-26 14:54:00,
2013-06-26 10:59:00,82.0,73.3,29.71,NE,54,0.0,0.0,75,0.00,,,0.00,Wunderground v.1.15,2013-06-26 14:59:00,
2013-06-26 11:04:00,82.5,73.8,29.71,NE,54,0.0,1.0,75,0.00,,,0.00,Wunderground v.1.15,2013-06-26 15:04:00,
2013-06-26 11:09:00,83.0,74.3,29.70,NE,53,0.0,1.0,75,0.00,,,0.00,Wunderground v.1.15,2013-06-26 15:09:00,
2013-06-26 11:14:00,83.4,74.6,29.71,NE,54,0.0,1.0,75,0.00,,,0.00,Wunderground v.1.15,2013-06-26 15:14:00,
2013-06-26 11:19:00,83.5,73.9,29.71,NE,53,0.0,3.0,73,0.00,,,0.00,Wunderground v.1.15,2013-06-26 15:19:00,
2013-06-26 11:24:00,83.4,73.4,29.71,NE,54,0.0,3.0,72,0.00,,,0.00,Wunderground v.1.15,2013-06-26 15:24:00,
2013-06-26 11:34:00,83.7,74.1,29.71,NE,45,1.0,1.0,73,0.00,,,0.00,Wunderground v.1.15,2013-06-26 15:34:00,
2013-06-26 11:39:00,83.4,73.8,29.71,NW,311,1.0,1.0,73,0.00,,,0.00,Wunderground v.1.15,2013-06-26 15:39:00,
2013-06-26 11:44:00,82.9,72.9,29.71,NW,313,0.0,1.0,72,0.00,,,0.00,Wunderground v.1.15,2013-06-26 15:44:00,
2013-06-26 11:54:00,81.9,72.8,29.71,NW,313,0.0,0.0,74,0.00,,,0.00,Wunderground v.1.15,2013-06-26 15:54:00,
2013-06-26 11:59:00,81.4,73.1,29.71,NW,313,0.0,1.0,76,0.00,,,0.00,Wunderground v.1.15,2013-06-26 15:59:00,
2013-06-26 12:09:00,81.1,73.2,29.71,NW,315,0.0,1.0,77,0.00,,,0.00,Wunderground v.1.15,2013-06-26 16:09:00,
2013-06-26 12:14:00,81.0,72.7,29.71,NW,316,0.0,1.0,76,0.00,,,0.00,Wunderground v.1.15,2013-06-26 16:14:00,
2013-06-26 12:19:00,80.7,72.4,29.71,NNW,340,0.0,2.0,76,0.00,,,0.00,Wunderground v.1.15,2013-06-26 16:19:00,
2013-06-26 12:29:00,79.5,72.0,29.71,SSE,148,1.0,1.0,78,0.00,,,0.00,Wunderground v.1.15,2013-06-26 16:29:00,
2013-06-26 12:39:00,79.0,72.7,29.71,SSE,148,1.0,1.0,81,0.00,,,0.00,Wunderground v.1.15,2013-06-26 16:39:00,
2013-06-26 12:44:00,78.7,72.4,29.71,SE,130,1.0,4.0,81,0.00,,,0.00,Wunderground v.1.15,2013-06-26 16:44:00,
2013-06-26 12:49:00,78.0,72.1,29.71,SSE,147,1.0,1.0,82,0.00,,,0.00,Wunderground v.1.15,2013-06-26 16:49:00,
2013-06-26 12:59:00,77.2,71.6,29.71,SE,144,1.0,1.0,83,0.00,,,0.00,Wunderground v.1.15,2013-06-26 16:59:00,
2013-06-26 13:04:00,77.1,71.9,29.71,SE,144,1.0,2.0,84,0.00,,,0.00,Wunderground v.1.15,2013-06-26 17:04:00,
2013-06-26 13:14:00,76.7,71.8,29.71,SE,136,1.0,3.0,85,0.00,,,0.00,Wunderground v.1.15,2013-06-26 17:14:00,
2013-06-26 13:19:00,76.4,71.9,29.71,SE,136,1.0,2.0,86,0.00,,,0.00,Wunderground v.1.15,2013-06-26 17:19:00,
2013-06-26 13:24:00,76.3,72.1,29.71,SE,136,1.0,2.0,87,0.00,,,0.00,Wunderground v.1.15,2013-06-26 17:24:00,
2013-06-26 13:29:00,76.0,72.2,29.71,SE,136,1.0,1.0,88,0.00,,,0.00,Wunderground v.1.15,2013-06-26 17:29:00,
2013-06-26 13:34:00,75.9,72.1,29.71,SE,136,1.0,2.0,88,0.00,,,0.00,Wunderground v.1.15,2013-06-26 17:34:00,
2013-06-26 13:39:00,75.7,71.9,29.71,SE,136,0.0,1.0,88,0.00,,,0.00,Wunderground v.1.15,2013-06-26 17:39:00,
2013-06-26 13:44:00,75.5,72.0,29.71,SE,136,0.0,2.0,89,0.00,,,0.00,Wunderground v.1.15,2013-06-26 17:44:00,
2013-06-26 13:54:00,75.4,72.9,29.71,SE,136,0.0,1.0,92,0.00,,,0.01,Wunderground v.1.15,2013-06-26 17:54:00,
2013-06-26 14:04:00,75.3,72.8,29.71,SE,136,0.0,0.0,92,0.07,,,0.02,Wunderground v.1.15,2013-06-26 18:04:00,
2013-06-26 14:14:00,74.7,72.2,29.71,SE,136,0.0,0.0,92,0.00,,,0.02,Wunderground v.1.15,2013-06-26 18:14:00,
2013-06-26 14:19:00,74.3,71.8,29.71,SE,136,0.0,0.0,92,0.00,,,0.02,Wunderground v.1.15,2013-06-26 18:19:00,
2013-06-26 14:24:00,74.1,71.6,29.71,SE,136,0.0,0.0,92,0.00,,,0.02,Wunderground v.1.15,2013-06-26 18:24:00,
2013-06-26 14:34:00,73.9,72.1,29.71,SE,136,0.0,1.0,94,0.00,,,0.02,Wunderground v.1.15,2013-06-26 18:34:00,
2013-06-26 14:39:00,74.0,72.2,29.71,SE,136,0.0,0.0,94,0.00,,,0.02,Wunderground v.1.15,2013-06-26 18:39:00,
2013-06-26 14:49:00,74.4,72.6,29.71,SE,136,0.0,0.0,94,0.00,,,0.02,Wunderground v.1.15,2013-06-26 18:49:00,
2013-06-26 14:59:00,74.3,71.8,29.71,SE,125,0.0,0.0,92,0.00,,,0.02,Wunderground v.1.15,2013-06-26 18:59:00,
2013-06-26 15:09:00,74.4,71.6,29.71,SE,125,0.0,1.0,91,0.00,,,0.02,Wunderground v.1.15,2013-06-26 19:09:00,
2013-06-26 15:19:00,74.5,71.7,29.71,SE,125,0.0,0.0,91,0.00,,,0.02,Wunderground v.1.15,2013-06-26 19:19:00,
2013-06-26 15:24:00,74.3,71.5,29.72,SE,125,0.0,0.0,91,0.00,,,0.02,Wunderground v.1.15,2013-06-26 19:24:00,
2013-06-26 15:29:00,74.2,71.7,29.72,SE,125,0.0,0.0,92,0.76,,,0.14,Wunderground v.1.15,2013-06-26 19:29:00,
2013-06-26 15:39:00,73.5,71.7,29.72,SE,125,0.0,0.0,94,0.08,,,0.20,Wunderground v.1.15,2013-06-26 19:39:00,
2013-06-26 15:49:00,72.5,70.7,29.72,SE,125,0.0,0.0,94,0.00,,,0.20,Wunderground v.1.15,2013-06-26 19:49:00,
2013-06-26 15:59:00,72.0,70.5,29.72,SE,125,0.0,0.0,95,0.00,,,0.20,Wunderground v.1.15,2013-06-26 19:59:00,
2013-06-26 16:04:00,71.7,70.2,29.72,SE,125,0.0,1.0,95,0.00,,,0.20,Wunderground v.1.15,2013-06-26 20:04:00,
2013-06-26 16:09:00,71.5,70.0,29.72,SE,125,0.0,0.0,95,0.00,,,0.20,Wunderground v.1.15,2013-06-26 20:09:00,
2013-06-26 16:19:00,71.3,70.1,29.71,SE,125,0.0,1.0,96,0.00,,,0.20,Wunderground v.1.15,2013-06-26 20:19:00,
2013-06-26 16:24:00,71.3,70.1,29.71,SE,125,0.0,1.0,96,0.00,,,0.20,Wunderground v.1.15,2013-06-26 20:24:00,
2013-06-26 16:34:00,71.2,70.0,29.71,SE,125,0.0,3.0,96,0.00,,,0.20,Wunderground v.1.15,2013-06-26 20:34:00,
2013-06-26 16:39:00,71.0,70.1,29.71,SE,125,0.0,0.0,97,0.00,,,0.20,Wunderground v.1.15,2013-06-26 20:39:00,
2013-06-26 16:44:00,70.9,70.0,29.72,SE,125,0.0,2.0,97,0.00,,,0.20,Wunderground v.1.15,2013-06-26 20:44:00,
2013-06-26 16:49:00,70.7,69.8,29.72,SE,125,0.0,2.0,97,0.00,,,0.21,Wunderground v.1.15,2013-06-26 20:49:00,
2013-06-26 16:54:00,70.5,69.6,29.71,SE,125,0.0,2.0,97,0.09,,,0.22,Wunderground v.1.15,2013-06-26 20:54:00,
2013-06-26 16:59:00,70.4,69.5,29.72,SE,125,0.0,0.0,97,0.21,,,0.24,Wunderground v.1.15,2013-06-26 20:59:00,
2013-06-26 17:09:00,70.3,69.4,29.73,SE,125,0.0,0.0,97,2.11,,,0.37,Wunderground v.1.15,2013-06-26 21:09:00,
2013-06-26 17:19:00,70.1,69.5,29.73,SE,125,0.0,0.0,98,0.93,,,0.54,Wunderground v.1.15,2013-06-26 21:19:00,
2013-06-26 17:29:00,70.0,69.4,29.73,SE,125,0.0,1.0,98,0.08,,,0.56,Wunderground v.1.15,2013-06-26 21:29:00,
2013-06-26 17:34:00,70.0,69.4,29.74,SE,125,0.0,1.0,98,0.05,,,0.56,Wunderground v.1.15,2013-06-26 21:34:00,
2013-06-26 17:39:00,69.9,69.6,29.74,SE,125,0.0,0.0,99,0.00,,,0.56,Wunderground v.1.15,2013-06-26 21:39:00,
2013-06-26 17:44:00,69.9,69.6,29.73,SE,125,0.0,0.0,99,0.00,,,0.56,Wunderground v.1.15,2013-06-26 21:44:00,
2013-06-26 17:54:00,70.2,69.9,29.73,SE,125,0.0,0.0,99,0.00,,,0.56,Wunderground v.1.15,2013-06-26 21:54:00,
2013-06-26 18:04:00,70.2,69.9,29.73,SE,125,0.0,1.0,99,0.00,,,0.56,Wunderground v.1.15,2013-06-26 22:04:00,
2013-06-26 18:09:00,70.1,69.8,29.73,SE,125,0.0,0.0,99,0.00,,,0.56,Wunderground v.1.15,2013-06-26 22:09:00,
2013-06-26 18:14:00,70.0,69.7,29.73,SE,125,0.0,0.0,99,0.00,,,0.56,Wunderground v.1.15,2013-06-26 22:14:00,
2013-06-26 18:24:00,69.9,69.6,29.73,SE,125,0.0,0.0,99,0.00,,,0.56,Wunderground v.1.15,2013-06-26 22:24:00,
2013-06-26 18:34:00,69.9,69.6,29.73,SE,125,0.0,0.0,99,0.00,,,0.56,Wunderground v.1.15,2013-06-26 22:34:00,
2013-06-26 18:39:00,70.0,69.7,29.73,SE,125,0.0,0.0,99,0.00,,,0.56,Wunderground v.1.15,2013-06-26 22:39:00,
2013-06-26 18:44:00,70.0,69.7,29.74,SE,125,0.0,0.0,99,0.00,,,0.56,Wunderground v.1.15,2013-06-26 22:44:00,
2013-06-26 18:49:00,70.1,69.8,29.74,SE,125,0.0,0.0,99,0.00,,,0.56,Wunderground v.1.15,2013-06-26 22:49:00,
2013-06-26 18:54:00,70.1,69.8,29.74,SE,125,0.0,0.0,99,0.00,,,0.56,Wunderground v.1.15,2013-06-26 22:54:00,
2013-06-26 18:59:00,70.2,69.9,29.73,SE,125,0.0,0.0,99,0.00,,,0.56,Wunderground v.1.15,2013-06-26 22:59:00,
2013-06-26 19:04:00,70.2,69.9,29.74,SE,125,0.0,0.0,99,0.00,,,0.56,Wunderground v.1.15,2013-06-26 23:04:00,
2013-06-26 19:14:00,70.2,69.9,29.74,SE,125,0.0,0.0,99,0.00,,,0.56,Wunderground v.1.15,2013-06-26 23:14:00,
2013-06-26 19:19:00,70.1,69.8,29.75,SE,125,0.0,0.0,99,0.00,,,0.56,Wunderground v.1.15,2013-06-26 23:19:00,
2013-06-26 19:24:00,69.9,69.6,29.75,SE,125,0.0,0.0,99,0.00,,,0.56,Wunderground v.1.15,2013-06-26 23:24:00,
2013-06-26 19:29:00,69.8,69.5,29.75,SE,125,0.0,0.0,99,0.00,,,0.56,Wunderground v.1.15,2013-06-26 23:29:00,
2013-06-26 19:34:00,69.7,69.4,29.75,SE,125,0.0,1.0,99,0.00,,,0.56,Wunderground v.1.15,2013-06-26 23:34:00,
2013-06-26 19:44:00,69.5,69.2,29.76,SE,125,0.0,0.0,99,0.00,,,0.56,Wunderground v.1.15,2013-06-26 23:44:00,
2013-06-26 19:49:00,69.5,69.2,29.77,SE,125,0.0,0.0,99,0.00,,,0.56,Wunderground v.1.15,2013-06-26 23:49:00,
2013-06-26 19:54:00,69.4,69.1,29.78,SE,125,0.0,0.0,99,0.00,,,0.56,Wunderground v.1.15,2013-06-26 23:54:00,
2013-06-26 19:59:00,69.3,69.0,29.78,SE,125,0.0,1.0,99,0.00,,,0.56,Wunderground v.1.15,2013-06-26 23:59:00,
2013-06-26 20:09:00,66.7,65.5,29.78,North,5,1.0,1.0,96,0.00,,,0.56,Wunderground v.1.15,2013-06-27 00:09:00,
2013-06-26 20:14:00,65.3,64.4,29.79,NNW,342,1.0,3.0,97,0.00,,,0.56,Wunderground v.1.15,2013-06-27 00:14:00,
2013-06-26 20:19:00,64.4,63.5,29.79,SSW,195,1.0,4.0,97,0.00,,,0.56,Wunderground v.1.15,2013-06-27 00:19:00,
2013-06-26 20:24:00,63.7,62.8,29.79,SSW,203,2.0,4.0,97,0.00,,,0.56,Wunderground v.1.15,2013-06-27 00:24:00,
2013-06-26 20:29:00,63.3,62.7,29.80,West,275,1.0,2.0,98,0.00,,,0.56,Wunderground v.1.15,2013-06-27 00:29:00,
2013-06-26 20:34:00,62.9,62.3,29.80,East,79,1.0,2.0,98,0.00,,,0.56,Wunderground v.1.15,2013-06-27 00:34:00,
2013-06-26 20:39:00,62.6,62.0,29.79,North,360,1.0,4.0,98,0.00,,,0.56,Wunderground v.1.15,2013-06-27 00:39:00,
2013-06-26 20:44:00,62.5,61.9,29.79,West,263,2.0,4.0,98,0.00,,,0.56,Wunderground v.1.15,2013-06-27 00:44:00,
2013-06-26 20:54:00,62.3,62.0,29.80,WNW,300,1.0,5.0,99,0.00,,,0.56,Wunderground v.1.15,2013-06-27 00:54:00,
2013-06-26 20:59:00,62.2,61.9,29.80,NW,304,1.0,1.0,99,0.00,,,0.56,Wunderground v.1.15,2013-06-27 00:59:00,
2013-06-26 21:04:00,62.0,61.7,29.80,SW,228,1.0,4.0,99,0.00,,,0.56,Wunderground v.1.15,2013-06-27 01:04:00,
2013-06-26 21:14:00,61.8,61.5,29.80,SW,232,0.0,3.0,99,0.00,,,0.56,Wunderground v.1.15,2013-06-27 01:14:00,
2013-06-26 21:19:00,61.8,61.5,29.80,SE,128,1.0,1.0,99,0.00,,,0.56,Wunderground v.1.15,2013-06-27 01:19:00,
2013-06-26 21:29:00,61.7,61.4,29.81,SE,139,0.0,2.0,99,0.00,,,0.56,Wunderground v.1.15,2013-06-27 01:29:00,
2013-06-26 21:34:00,61.6,61.3,29.80,SE,138,0.0,2.0,99,0.00,,,0.56,Wunderground v.1.15,2013-06-27 01:34:00,
2013-06-26 21:39:00,61.6,61.3,29.80,SE,139,0.0,0.0,99,0.00,,,0.56,Wunderground v.1.15,2013-06-27 01:39:00,
2013-06-26 21:44:00,61.7,61.4,29.81,SE,138,0.0,0.0,99,0.00,,,0.56,Wunderground v.1.15,2013-06-27 01:44:00,
2013-06-26 21:49:00,61.7,61.4,29.81,SE,138,0.0,2.0,99,0.00,,,0.56,Wunderground v.1.15,2013-06-27 01:49:00,
2013-06-26 21:54:00,61.7,61.4,29.81,SE,138,0.0,2.0,99,0.00,,,0.56,Wunderground v.1.15,2013-06-27 01:54:00,
2013-06-26 22:04:00,61.8,61.8,29.81,SE,130,1.0,4.0,100,0.00,,,0.56,Wunderground v.1.15,2013-06-27 02:04:00,
2013-06-26 22:09:00,61.7,61.4,29.81,SE,131,0.0,1.0,99,0.00,,,0.56,Wunderground v.1.15,2013-06-27 02:09:00,
2013-06-26 22:14:00,61.6,61.3,29.82,SE,130,0.0,1.0,99,0.00,,,0.56,Wunderground v.1.15,2013-06-27 02:14:00,
2013-06-26 22:24:00,61.4,61.4,29.81,SE,131,0.0,2.0,100,0.00,,,0.56,Wunderground v.1.15,2013-06-27 02:24:00,
2013-06-26 22:29:00,61.3,61.3,29.81,SE,131,0.0,2.0,100,0.00,,,0.56,Wunderground v.1.15,2013-06-27 02:29:00,
2013-06-26 22:34:00,61.3,61.3,29.81,SE,131,0.0,2.0,100,0.00,,,0.56,Wunderground v.1.15,2013-06-27 02:34:00,
2013-06-26 22:39:00,61.2,61.2,29.81,SE,126,0.0,2.0,100,0.00,,,0.56,Wunderground v.1.15,2013-06-27 02:39:00,
2013-06-26 22:49:00,61.1,61.1,29.81,SE,127,0.0,1.0,100,0.00,,,0.56,Wunderground v.1.15,2013-06-27 02:49:00,
2013-06-26 22:54:00,61.1,61.1,29.81,SE,127,0.0,1.0,100,0.00,,,0.56,Wunderground v.1.15,2013-06-27 02:54:00,
2013-06-26 22:59:00,61.1,61.1,29.82,SE,127,0.0,1.0,100,0.00,,,0.56,Wunderground v.1.15,2013-06-27 02:59:00,
2013-06-26 23:04:00,61.0,61.0,29.81,SE,127,0.0,4.0,100,0.00,,,0.56,Wunderground v.1.15,2013-06-27 03:04:00,
2013-06-26 23:14:00,61.1,61.1,29.82,SE,126,0.0,3.0,100,0.00,,,0.56,Wunderground v.1.15,2013-06-27 03:14:00,
2013-06-26 23:19:00,61.1,61.1,29.82,SE,127,0.0,0.0,100,0.00,,,0.56,Wunderground v.1.15,2013-06-27 03:19:00,
2013-06-26 23:24:00,61.1,61.1,29.82,SE,127,0.0,0.0,100,0.00,,,0.56,Wunderground v.1.15,2013-06-27 03:24:00,
2013-06-26 23:29:00,61.0,61.0,29.81,SE,127,0.0,1.0,100,0.00,,,0.56,Wunderground v.1.15,2013-06-27 03:29:00,
2013-06-26 23:34:00,61.0,61.0,29.81,SE,127,0.0,1.0,100,0.00,,,0.56,Wunderground v.1.15,2013-06-27 03:34:00,
2013-06-26 23:39:00,61.1,61.1,29.81,SE,127,0.0,0.0,100,0.00,,,0.56,Wunderground v.1.15,2013-06-27 03:39:00,
2013-06-26 23:44:00,61.1,61.1,29.81,SE,126,0.0,0.0,100,0.00,,,0.56,Wunderground v.1.15,2013-06-27 03:44:00,
2013-06-26 23:49:00,61.1,61.1,29.80,SE,127,0.0,0.0,100,0.00,,,0.56,Wunderground v.1.15,2013-06-27 03:49:00,
2013-06-26 23:54:00,61.1,61.1,29.80,SE,126,0.0,1.0,100,0.00,,,0.56,Wunderground v.1.15,2013-06-27 03:54:00,